createdAt,value
2019-06-27T00:01:10.021Z,43.06
2019-06-27T00:03:44.425Z,43.22
2019-06-27T00:06:19.135Z,43.20
2019-06-27T00:08:53.638Z,43.34
2019-06-27T00:11:28.441Z,43.35
2019-06-27T00:14:02.920Z,43.29
2019-06-27T00:16:37.280Z,43.58
2019-06-27T00:19:11.765Z,43.56
2019-06-27T00:21:46.278Z,43.81
2019-06-27T00:27:47.859Z,44.28
2019-06-27T00:30:22.636Z,44.31
2019-06-27T00:32:56.947Z,44.42
2019-06-27T00:35:31.283Z,44.77
2019-06-27T00:38:05.777Z,44.77
2019-06-27T00:40:38.649Z,44.71
2019-06-27T00:43:12.946Z,44.90
2019-06-27T00:45:47.112Z,44.81
2019-06-27T00:48:21.686Z,45.23
2019-06-27T00:53:35.782Z,45.40
2019-06-27T00:56:08.853Z,45.40
2019-06-27T00:58:43.273Z,46.02
2019-06-27T01:01:17.720Z,46.43
2019-06-27T01:03:52.095Z,46.59
2019-06-27T01:06:26.672Z,46.38
2019-06-27T01:09:00.947Z,46.38
2019-06-27T01:11:36.778Z,46.34
2019-06-27T01:14:09.710Z,46.50
2019-06-27T01:16:43.945Z,46.44
2019-06-27T01:19:18.272Z,47.23
2019-06-27T01:21:53.277Z,47.23
2019-06-27T01:24:27.667Z,47.15
2019-06-27T01:27:02.102Z,47.60
2019-06-27T01:29:36.307Z,48.09
2019-06-27T01:32:10.777Z,48.09
2019-06-27T01:34:45.080Z,48.25
2019-06-27T01:37:19.656Z,48.26
2019-06-27T01:39:53.627Z,48.26
2019-06-27T01:42:27.917Z,47.89
2019-06-27T01:45:08.269Z,47.94
2019-06-27T01:47:42.657Z,47.94
2019-06-27T01:50:16.940Z,47.98
2019-06-27T01:52:52.270Z,47.87
2019-06-27T01:55:26.677Z,48.00
2019-06-27T01:57:59.689Z,48.02
2019-06-27T02:00:34.253Z,47.89
2019-06-27T02:05:47.664Z,48.46
2019-06-27T02:08:22.273Z,48.46
2019-06-27T02:10:56.958Z,48.60
2019-06-27T02:13:31.309Z,48.64
2019-06-27T02:16:05.942Z,48.30
2019-06-27T02:18:40.294Z,48.14
2019-06-27T02:21:14.760Z,48.31
2019-06-27T02:23:47.674Z,48.53
2019-06-27T02:26:22.083Z,48.44
2019-06-27T02:28:56.317Z,48.50
2019-06-27T02:31:30.889Z,48.50
2019-06-27T02:34:07.102Z,48.30
2019-06-27T02:36:58.356Z,47.62
2019-06-27T02:39:33.951Z,47.62
2019-06-27T02:42:08.646Z,47.55
2019-06-27T02:44:43.078Z,47.69
2019-06-27T02:47:17.649Z,48.07
2019-06-27T02:49:51.092Z,48.07
2019-06-27T02:52:25.295Z,48.30
2019-06-27T02:54:59.707Z,48.12
2019-06-27T02:57:34.131Z,47.70
2019-06-27T03:00:08.639Z,47.82
2019-06-27T03:02:42.954Z,47.82
2019-06-27T03:05:17.708Z,47.75
2019-06-27T03:07:50.812Z,47.75
2019-06-27T03:10:25.122Z,48.15
2019-06-27T03:12:59.731Z,48.12
2019-06-27T03:15:34.110Z,47.93
2019-06-27T03:18:08.697Z,48.10
2019-06-27T03:20:43.096Z,48.10
2019-06-27T03:23:17.740Z,48.26
2019-06-27T03:25:51.057Z,48.50
2019-06-27T03:28:25.305Z,48.50
2019-06-27T03:30:59.727Z,48.09
2019-06-27T03:33:34.134Z,48.16
2019-06-27T03:36:08.623Z,47.75
2019-06-27T03:38:42.960Z,47.75
2019-06-27T03:41:17.336Z,47.83
2019-06-27T03:43:51.947Z,47.90
2019-06-27T03:46:26.278Z,48.17
2019-06-27T03:49:00.705Z,48.25
2019-06-27T03:51:33.867Z,48.31
2019-06-27T03:54:08.119Z,48.31
2019-06-27T03:56:42.642Z,48.12
2019-06-27T03:59:17.240Z,48.12
2019-06-27T04:01:51.694Z,48.33
2019-06-27T04:04:26.106Z,48.25
2019-06-27T04:07:00.864Z,48.15
2019-06-27T04:09:35.280Z,48.46
2019-06-27T04:12:09.725Z,48.25
2019-06-27T04:15:14.701Z,48.33
2019-06-27T04:17:48.032Z,48.37
2019-06-27T04:20:22.330Z,48.82
2019-06-27T04:22:56.950Z,49.06
2019-06-27T04:25:31.338Z,49.03
2019-06-27T04:28:05.785Z,49.03
2019-06-27T04:30:40.268Z,49.54
2019-06-27T04:33:14.826Z,49.89
2019-06-27T04:35:48.031Z,49.99
2019-06-27T04:38:22.279Z,50.15
2019-06-27T04:40:56.744Z,49.94
2019-06-27T04:43:32.315Z,49.99
2019-06-27T04:46:06.886Z,49.99
2019-06-27T04:48:41.281Z,50.38
2019-06-27T04:51:15.721Z,50.31
2019-06-27T04:53:50.145Z,50.55
2019-06-27T04:56:24.676Z,50.40
2019-06-27T04:58:57.653Z,50.40
2019-06-27T05:01:31.956Z,49.95
2019-06-27T05:04:07.691Z,50.02
2019-06-27T05:06:41.946Z,50.02
2019-06-27T05:09:16.277Z,50.33
2019-06-27T05:11:50.794Z,50.46
2019-06-27T05:14:23.684Z,50.24
2019-06-27T05:16:58.327Z,50.06
2019-06-27T05:19:32.750Z,49.66
2019-06-27T05:22:05.805Z,49.65
2019-06-27T05:24:39.959Z,49.25
2019-06-27T05:27:14.278Z,49.16
2019-06-27T05:29:49.738Z,48.98
2019-06-27T05:32:25.700Z,48.71
2019-06-27T05:35:00.121Z,48.44
2019-06-27T05:37:34.728Z,48.47
2019-06-27T05:40:09.643Z,48.10
2019-06-27T05:42:43.947Z,47.80
2019-06-27T05:45:19.277Z,47.27
2019-06-27T05:47:53.807Z,47.18
2019-06-27T05:50:26.784Z,47.26
2019-06-27T05:53:00.948Z,47.03
2019-06-27T05:55:34.854Z,47.01
2019-06-27T05:58:08.945Z,46.92
2019-06-27T06:00:44.122Z,46.77
2019-06-27T06:03:18.696Z,46.92
2019-06-27T06:05:53.090Z,47.07
2019-06-27T06:08:27.673Z,47.13
2019-06-27T06:11:02.287Z,47.13
2019-06-27T06:13:36.874Z,46.75
2019-06-27T06:16:12.892Z,46.91
2019-06-27T06:18:47.273Z,47.58
2019-06-27T06:21:21.712Z,47.39
2019-06-27T06:23:56.123Z,47.39
2019-06-27T06:26:30.675Z,46.78
2019-06-27T06:29:05.112Z,46.89
2019-06-27T06:31:39.649Z,47.23
2019-06-27T06:34:13.952Z,47.23
2019-06-27T06:36:48.653Z,47.45
2019-06-27T06:39:23.258Z,47.45
2019-06-27T06:41:57.704Z,47.61
2019-06-27T06:44:32.251Z,47.84
2019-06-27T06:47:06.684Z,47.74
2019-06-27T06:49:40.942Z,47.42
2019-06-27T06:52:13.694Z,46.19
2019-06-27T06:54:48.141Z,45.43
2019-06-27T06:57:23.638Z,44.32
2019-06-27T06:59:57.961Z,44.32
2019-06-27T07:02:32.582Z,44.48
2019-06-27T07:05:07.358Z,44.48
2019-06-27T07:07:41.901Z,44.28
2019-06-27T07:10:17.365Z,44.27
2019-06-27T07:12:51.927Z,43.51
2019-06-27T07:15:26.296Z,42.81
2019-06-27T07:18:00.795Z,42.62
2019-06-27T07:20:33.791Z,42.37
2019-06-27T07:23:07.928Z,42.62
2019-06-27T07:25:42.275Z,43.12
2019-06-27T07:28:16.681Z,42.82
2019-06-27T07:30:51.118Z,42.87
2019-06-27T07:33:25.635Z,42.03
2019-06-27T07:36:00.941Z,42.03
2019-06-27T07:38:35.277Z,41.66
2019-06-27T07:41:10.702Z,41.92
2019-06-27T07:43:44.109Z,41.05
2019-06-27T07:46:25.167Z,39.19
2019-06-27T07:48:55.302Z,39.51
2019-06-27T07:51:29.892Z,39.51
2019-06-27T07:54:04.730Z,39.55
2019-06-27T07:56:39.708Z,39.44
2019-06-27T07:59:13.039Z,39.44
2019-06-27T08:01:47.641Z,35.66
2019-06-27T08:04:22.292Z,35.66
2019-06-27T08:06:58.271Z,36.76
2019-06-27T08:09:32.711Z,37.51
2019-06-27T08:13:07.770Z,38.02
2019-06-27T08:15:41.951Z,37.99
2019-06-27T08:18:16.177Z,37.99
2019-06-27T08:20:50.937Z,37.16
2019-06-27T08:23:40.542Z,33.77
2019-06-27T08:26:01.949Z,33.77
2019-06-27T08:28:36.265Z,34.93
2019-06-27T08:31:10.753Z,34.50
2019-06-27T08:33:45.700Z,33.97
2019-06-27T08:36:19.042Z,33.97
2019-06-27T08:38:53.659Z,32.33
2019-06-27T08:43:01.288Z,32.31
2019-06-27T08:45:35.746Z,31.65
2019-06-27T08:48:09.086Z,31.35
2019-06-27T08:50:43.292Z,32.10
2019-06-27T08:53:17.953Z,30.81
2019-06-27T08:55:52.345Z,30.13
2019-06-27T08:58:25.855Z,29.43
2019-06-27T09:01:00.318Z,29.50
2019-06-27T09:03:34.917Z,29.50
2019-06-27T09:06:09.304Z,25.29
2019-06-27T09:08:43.959Z,25.29
2019-06-27T09:11:19.114Z,25.00
2019-06-27T09:13:53.669Z,24.37
2019-06-27T09:16:26.673Z,24.37
2019-06-27T09:19:00.939Z,23.70
2019-06-27T09:21:35.279Z,23.61
2019-06-27T09:24:09.720Z,23.71
2019-06-27T09:26:44.339Z,24.57
2019-06-27T09:29:18.929Z,24.53
2019-06-27T09:31:53.305Z,23.91
2019-06-27T09:34:27.750Z,23.21
2019-06-27T09:37:02.133Z,21.98
2019-06-27T09:39:36.662Z,21.73
2019-06-27T09:42:09.644Z,21.33
2019-06-27T09:44:44.009Z,20.71
2019-06-27T09:47:18.306Z,20.75
2019-06-27T09:49:52.866Z,20.47
2019-06-27T09:52:27.278Z,20.66
2019-06-27T09:55:01.891Z,19.64
2019-06-27T09:57:36.615Z,19.21
2019-06-27T10:00:11.920Z,19.21
2019-06-27T10:02:46.311Z,19.29
2019-06-27T10:05:21.066Z,19.29
2019-06-27T10:07:55.303Z,19.54
2019-06-27T10:10:29.702Z,19.54
2019-06-27T10:13:04.269Z,19.60
2019-06-27T10:15:39.718Z,18.92
2019-06-27T10:18:12.639Z,18.35
2019-06-27T10:20:47.684Z,17.02
2019-06-27T10:23:20.632Z,17.02
2019-06-27T10:25:54.925Z,17.25
2019-06-27T10:28:29.279Z,17.05
2019-06-27T10:31:03.882Z,17.05
2019-06-27T10:33:38.276Z,17.12
2019-06-27T10:36:12.856Z,17.54
2019-06-27T10:38:47.309Z,17.45
2019-06-27T10:41:21.767Z,17.45
2019-06-27T10:43:58.325Z,16.75
2019-06-27T10:46:30.750Z,17.27
2019-06-27T10:49:03.709Z,16.43
2019-06-27T10:51:38.083Z,16.43
2019-06-27T10:54:12.685Z,16.57
2019-06-27T10:56:47.060Z,16.14
2019-06-27T10:59:22.644Z,16.57
2019-06-27T11:01:55.775Z,16.57
2019-06-27T11:04:28.665Z,16.18
2019-06-27T11:07:02.950Z,16.04
2019-06-27T11:09:37.701Z,16.18
2019-06-27T11:12:12.218Z,15.89
2019-06-27T11:14:58.566Z,16.69
2019-06-27T11:17:21.686Z,15.78
2019-06-27T11:19:55.908Z,13.83
2019-06-27T11:22:30.344Z,13.83
2019-06-27T11:25:04.947Z,13.58
2019-06-27T11:27:40.271Z,12.78
2019-06-27T11:30:15.598Z,12.41
2019-06-27T11:32:50.325Z,12.62
2019-06-27T11:35:24.753Z,12.62
2019-06-27T11:37:57.699Z,11.14
2019-06-27T11:40:31.939Z,11.14
2019-06-27T11:43:06.250Z,11.78
2019-06-27T11:45:40.706Z,11.78
2019-06-27T11:48:13.656Z,10.98
2019-06-27T11:50:47.938Z,10.49
2019-06-27T11:53:22.351Z,10.79
2019-06-27T11:55:56.759Z,10.74
2019-06-27T11:58:29.700Z,10.67
2019-06-27T12:01:04.103Z,10.91
2019-06-27T12:03:48.739Z,10.33
2019-06-27T12:06:14.801Z,10.33
2019-06-27T12:08:47.854Z,9.51
2019-06-27T12:11:21.950Z,9.16
2019-06-27T12:13:56.303Z,9.30
2019-06-27T12:16:30.728Z,9.38
2019-06-27T12:19:05.661Z,8.28
2019-06-27T12:21:38.727Z,8.28
2019-06-27T12:24:12.889Z,8.67
2019-06-27T12:26:47.279Z,8.90
2019-06-27T12:29:21.707Z,9.36
2019-06-27T12:31:55.950Z,9.36
2019-06-27T12:34:30.264Z,9.19
2019-06-27T12:37:04.688Z,9.21
2019-06-27T12:39:37.688Z,8.19
2019-06-27T12:42:11.946Z,7.91
2019-06-27T12:44:47.270Z,7.86
2019-06-27T12:47:21.863Z,8.12
2019-06-27T12:50:02.599Z,7.59
2019-06-27T12:52:32.282Z,7.54
2019-06-27T12:55:06.893Z,7.62
2019-06-27T12:57:41.279Z,7.62
2019-06-27T13:00:16.682Z,7.31
2019-06-27T13:02:49.686Z,7.58
2019-06-27T13:05:23.940Z,7.78
2019-06-27T13:07:58.292Z,7.51
2019-06-27T13:10:36.937Z,6.98
2019-06-27T13:13:11.259Z,7.07
2019-06-27T13:15:45.718Z,7.24
2019-06-27T13:18:19.927Z,7.63
2019-06-27T13:20:58.300Z,7.86
2019-06-27T13:23:30.307Z,7.98
2019-06-27T13:26:05.233Z,7.73
2019-06-27T13:28:39.736Z,7.73
2019-06-27T13:31:13.276Z,7.22
2019-06-27T13:33:47.653Z,7.53
2019-06-27T13:36:22.285Z,7.58
2019-06-27T13:38:57.120Z,7.41
2019-06-27T13:41:31.732Z,7.54
2019-06-27T13:44:05.013Z,7.60
2019-06-27T13:46:39.291Z,7.65
2019-06-27T13:49:13.917Z,7.75
2019-06-27T13:51:48.594Z,7.72
2019-06-27T13:54:21.791Z,7.72
2019-06-27T13:56:55.141Z,7.47
2019-06-27T13:59:29.648Z,7.41
2019-06-27T14:02:06.129Z,7.58
2019-06-27T14:04:56.155Z,7.26
2019-06-27T14:07:16.924Z,7.26
2019-06-27T14:09:56.688Z,7.14
2019-06-27T14:12:27.484Z,7.56
2019-06-27T14:15:02.000Z,7.38
2019-06-27T14:17:36.732Z,7.38
2019-06-27T14:20:09.884Z,7.78
2019-06-27T14:22:44.307Z,7.37
2019-06-27T14:25:18.694Z,7.37
2019-06-27T14:27:51.707Z,7.70
2019-06-27T14:30:27.353Z,7.84
2019-06-27T14:33:01.902Z,7.80
2019-06-27T14:35:36.272Z,8.31
2019-06-27T14:38:10.872Z,8.67
2019-06-27T14:40:46.667Z,8.62
2019-06-27T14:43:19.875Z,8.68
2019-06-27T14:46:47.284Z,8.60
2019-06-27T14:49:23.112Z,9.70
2019-06-27T14:51:59.284Z,9.70
2019-06-27T14:54:34.274Z,9.18
2019-06-27T14:57:09.090Z,9.75
2019-06-27T14:59:43.668Z,10.16
2019-06-27T15:03:19.296Z,10.44
2019-06-27T15:05:54.999Z,10.61
2019-06-27T15:08:30.304Z,11.39
2019-06-27T15:11:05.312Z,11.39
2019-06-27T15:13:40.283Z,11.63
2019-06-27T15:16:15.311Z,12.29
2019-06-27T15:18:51.284Z,12.32
2019-06-27T15:22:21.981Z,12.79
2019-06-27T15:24:57.353Z,13.96
2019-06-27T15:27:32.284Z,14.42
2019-06-27T15:30:07.680Z,14.42
2019-06-27T15:32:41.162Z,14.64
2019-06-27T15:35:15.356Z,14.78
2019-06-27T15:39:20.891Z,16.09
2019-06-27T15:41:55.461Z,16.37
2019-06-27T15:44:30.291Z,16.82
2019-06-27T15:47:05.277Z,16.86
2019-06-27T15:49:39.964Z,16.41
2019-06-27T15:52:14.714Z,16.68
2019-06-27T15:54:47.890Z,17.15
2019-06-27T15:57:23.091Z,17.53
2019-06-27T15:59:57.736Z,17.27
2019-06-27T16:02:32.249Z,17.27
2019-06-27T16:05:07.363Z,17.44
2019-06-27T16:07:41.958Z,17.99
2019-06-27T16:10:16.719Z,17.82
2019-06-27T16:12:49.883Z,18.42
2019-06-27T16:15:24.295Z,18.71
2019-06-27T16:17:58.988Z,18.70
2019-06-27T16:20:33.699Z,19.50
2019-06-27T16:23:08.133Z,19.50
2019-06-27T16:25:42.960Z,19.49
2019-06-27T16:28:17.332Z,20.00
2019-06-27T16:30:52.294Z,20.63
2019-06-27T16:33:26.338Z,20.63
2019-06-27T16:36:00.960Z,20.74
2019-06-27T16:38:35.344Z,20.70
2019-06-27T16:41:09.775Z,20.98
2019-06-27T16:43:44.689Z,21.06
2019-06-27T16:46:19.131Z,20.80
2019-06-27T16:48:53.677Z,20.64
2019-06-27T16:51:26.675Z,20.64
2019-06-27T16:54:01.086Z,20.06
2019-06-27T16:56:35.899Z,20.20
2019-06-27T16:59:10.346Z,20.35
2019-06-27T17:01:44.953Z,20.07
2019-06-27T17:04:19.734Z,20.71
2019-06-27T17:06:54.331Z,20.71
2019-06-27T17:09:29.287Z,20.93
2019-06-27T17:12:03.774Z,20.27
2019-06-27T17:14:38.443Z,20.85
2019-06-27T17:17:13.286Z,20.23
2019-06-27T17:19:47.970Z,19.82
2019-06-27T17:22:22.658Z,20.15
2019-06-27T17:24:56.043Z,20.13
2019-06-27T17:27:30.409Z,20.13
2019-06-27T17:30:08.336Z,21.17
2019-06-27T17:32:43.268Z,21.40
2019-06-27T17:37:40.964Z,22.78
2019-06-27T17:40:15.962Z,22.76
2019-06-27T17:42:50.730Z,22.81
2019-06-27T17:45:26.479Z,23.21
2019-06-27T17:47:59.803Z,22.41
2019-06-27T17:50:34.132Z,21.77
2019-06-27T17:53:10.101Z,21.78
2019-06-27T17:55:44.952Z,21.78
2019-06-27T17:58:18.066Z,22.14
2019-06-27T18:00:52.437Z,22.96
2019-06-27T18:03:27.300Z,23.72
2019-06-27T18:06:02.282Z,24.03
2019-06-27T18:08:36.722Z,24.39
2019-06-27T18:11:12.331Z,24.97
2019-06-27T18:13:47.293Z,25.47
2019-06-27T18:16:22.291Z,25.80
2019-06-27T18:19:00.431Z,27.44
2019-06-27T18:21:34.267Z,27.44
2019-06-27T18:24:08.791Z,27.21
2019-06-27T18:26:42.296Z,27.00
2019-06-27T18:29:16.668Z,27.47
2019-06-27T18:31:51.288Z,27.19
2019-06-27T18:34:26.112Z,27.48
2019-06-27T18:37:00.702Z,27.60
2019-06-27T18:39:35.375Z,27.60
2019-06-27T18:42:09.961Z,27.78
2019-06-27T18:44:44.362Z,28.05
2019-06-27T18:50:05.448Z,28.46
2019-06-27T18:52:40.512Z,28.52
2019-06-27T18:55:15.293Z,28.52
2019-06-27T18:57:49.793Z,28.55
2019-06-27T19:00:25.926Z,28.63
2019-06-27T19:03:01.155Z,29.28
2019-06-27T19:05:36.332Z,29.33
2019-06-27T19:08:10.871Z,29.33
2019-06-27T19:10:45.728Z,29.55
2019-06-27T19:13:19.151Z,29.69
2019-06-27T19:15:55.288Z,30.09
2019-06-27T19:18:47.161Z,30.09
2019-06-27T19:21:27.374Z,29.91
2019-06-27T19:24:21.895Z,30.37
2019-06-27T19:26:57.930Z,30.47
2019-06-27T19:29:32.675Z,30.75
2019-06-27T19:32:07.124Z,30.75
2019-06-27T19:34:41.947Z,31.23
2019-06-27T19:37:16.304Z,31.74
2019-06-27T19:39:54.329Z,31.98
2019-06-27T19:44:16.669Z,31.88
2019-06-27T19:46:50.419Z,31.88
2019-06-27T19:51:52.301Z,32.41
2019-06-27T19:54:27.315Z,32.41
2019-06-27T19:57:02.317Z,32.63
2019-06-27T19:59:37.407Z,32.88
2019-06-27T20:02:12.287Z,32.83
2019-06-27T20:04:47.302Z,32.97
2019-06-27T20:07:22.294Z,33.04
2019-06-27T20:09:57.318Z,33.36
2019-06-27T20:12:32.317Z,33.68
2019-06-27T20:15:08.885Z,33.56
2019-06-27T20:17:44.313Z,34.09
2019-06-27T20:20:19.351Z,34.09
2019-06-27T20:22:54.305Z,34.40
2019-06-27T20:25:29.798Z,34.72
2019-06-27T20:28:04.999Z,35.55
2019-06-27T20:30:39.881Z,35.55
2019-06-27T20:33:14.402Z,35.54
2019-06-27T20:35:49.085Z,35.94
2019-06-27T20:38:34.384Z,35.96
2019-06-27T20:40:59.955Z,35.96
2019-06-27T20:43:34.332Z,35.99
2019-06-27T20:46:08.976Z,36.08
2019-06-27T20:48:43.693Z,36.82
2019-06-27T20:51:16.818Z,36.82
2019-06-27T20:53:51.280Z,37.08
2019-06-27T20:56:25.895Z,37.35
2019-06-27T20:59:00.399Z,37.52
2019-06-27T21:01:35.124Z,37.93
2019-06-27T21:04:09.934Z,38.03
2019-06-27T21:06:44.304Z,38.03
2019-06-27T21:09:19.973Z,38.17
2019-06-27T21:11:54.798Z,38.50
2019-06-27T21:14:27.683Z,38.48
2019-06-27T21:17:01.961Z,38.69
2019-06-27T21:19:36.401Z,38.51
2019-06-27T21:22:10.931Z,38.79
2019-06-27T21:24:45.366Z,39.00
2019-06-27T21:27:20.102Z,39.21
2019-06-27T21:29:54.869Z,39.21
2019-06-27T21:32:31.869Z,39.20
2019-06-27T21:35:18.344Z,39.49
2019-06-27T21:37:53.645Z,39.49
2019-06-27T21:40:35.312Z,39.52
2019-06-27T21:43:10.102Z,39.60
2019-06-27T21:45:44.662Z,39.72
2019-06-27T21:48:19.285Z,40.18
2019-06-27T21:50:54.129Z,40.48
2019-06-27T21:53:29.744Z,40.99
2019-06-27T21:56:04.191Z,40.99
2019-06-27T21:58:39.302Z,41.12
2019-06-27T22:01:14.425Z,41.13
2019-06-27T22:03:53.794Z,41.25
2019-06-27T22:06:28.294Z,41.33
2019-06-27T22:09:04.650Z,41.48
2019-06-27T22:11:39.246Z,41.44
2019-06-27T22:14:16.246Z,41.79
2019-06-27T22:16:51.281Z,41.79
2019-06-27T22:19:27.302Z,41.65
2019-06-27T22:22:03.088Z,41.72
2019-06-27T22:24:38.726Z,41.76
2019-06-27T22:29:58.494Z,41.96
2019-06-27T22:32:33.575Z,42.07
2019-06-27T22:35:43.330Z,41.87
2019-06-27T22:38:36.437Z,42.41
2019-06-27T22:41:29.846Z,42.25
2019-06-27T22:44:20.536Z,42.05
2019-06-27T22:47:13.915Z,42.24
2019-06-27T22:49:49.566Z,42.59
2019-06-27T22:52:54.582Z,42.72
2019-06-27T22:55:30.543Z,42.73
2019-06-27T22:58:05.408Z,43.52
2019-06-27T23:00:40.428Z,43.52
2019-06-27T23:03:15.599Z,43.25
2019-06-27T23:05:51.348Z,43.27
2019-06-27T23:08:29.315Z,43.37
2019-06-27T23:11:06.961Z,43.65
2019-06-27T23:13:42.426Z,43.65
2019-06-27T23:16:18.363Z,43.81
2019-06-27T23:18:53.526Z,43.77
2019-06-27T23:23:10.344Z,43.96
2019-06-27T23:25:45.704Z,43.96
2019-06-27T23:28:19.045Z,44.04
2019-06-27T23:30:53.408Z,44.05
2019-06-27T23:33:28.383Z,44.29
2019-06-27T23:36:03.365Z,44.20
2019-06-27T23:38:37.880Z,44.29
2019-06-27T23:41:16.394Z,44.57
2019-06-27T23:46:34.146Z,44.84
2019-06-27T23:49:09.582Z,44.63
2019-06-27T23:51:44.279Z,44.63
2019-06-27T23:54:18.920Z,45.16
2019-06-27T23:56:54.304Z,45.52
2019-06-27T23:59:29.408Z,45.64
